X  Cerrar Datos meteorológicos de aviación METAR     EHBK Maastricht Aachen Airport
Temperatura
15°C Temperatura
14°C Punto de rocío
94% Humedad



Viento
4 M/S
10 MPH
16 KM/H
9 NUDO



230°
SO
Condiciones actuales

Llovizna, Lluvia Llovizna, Lluvia
Presión 1005.76 (hPa) - 29.7 (inHg)
Visibilidad 6 (milla) - 9.7 (km)
Aeropuerto
Código de aeropuerto EHBK

localidad: Maastricht Aachen Airport
Distancia: 26 (km)

Metar:
EHBK 211655Z AUTO 23009KT 9999 DZRA OVC026 15/14 Q1006 TEMPO 4000 SHRA BKN012 SCT030CB

Hora: 21-05-2024 18:55 CEST